Time;durP1;ratioP1;P1;durP2;ratioP2;P2;SDS_P1;SDS_P2;PMS_P1;PMS_P2;Temp;Humidity;BMP_temperature;BMP_pressure;BME280_temperature;BME280_humidity;BME280_pressure;Samples;Min_cycle;Max_cycle;Signal;HPM_P1;HPM_P2
2023/04/05 00:02:02;;;;;;;86.97;7.15;;;;;;;;;;5017449;28;20096;-58
2023/04/05 00:04:29;;;;;;;90.93;6.88;;;;;;;;;;5018094;28;20103;-59
2023/04/05 00:06:56;;;;;;;97.60;7.63;;;;;;;;;;5020575;28;20033;-58
2023/04/05 00:09:21;;;;;;;116.90;8.07;;;;;;;;;;5020663;28;20028;-60
2023/04/05 00:11:47;;;;;;;115.43;7.38;;;;;;;;;;5020258;28;20041;-60
2023/04/05 00:14:12;;;;;;;100.68;7.20;;;;;;;;;;5020106;28;20707;-60
2023/04/05 00:16:37;;;;;;;88.57;6.80;;;;;;;;;;5020358;28;20119;-60
2023/04/05 00:19:03;;;;;;;94.68;7.45;;;;;;;;;;5020721;28;20051;-59
2023/04/05 00:21:28;;;;;;;96.78;7.30;;;;;;;;;;5020679;28;20332;-60
2023/04/05 00:23:56;;;;;;;104.43;7.30;;;;;;;;;;5019630;28;20047;-60
2023/04/05 00:26:21;;;;;;;106.28;7.57;;;;;;;;;;5020361;28;20037;-60
2023/04/05 00:28:47;;;;;;;108.60;7.65;;;;;;;;;;5020801;28;20935;-60
2023/04/05 00:31:12;;;;;;;99.78;7.40;;;;;;;;;;5019538;28;20124;-61
2023/04/05 00:33:37;;;;;;;111.45;7.65;;;;;;;;;;5020450;28;20491;-59
2023/04/05 00:36:10;;;;;;;84.95;6.30;;;;;;;;;;5019540;28;20033;-60
2023/04/05 00:38:35;;;;;;;;;;;;;;;;;;5021072;28;20018;-60
2023/04/05 00:41:00;;;;;;;108.75;8.60;;;;;;;;;;5020006;28;20842;-61
2023/04/05 00:43:25;;;;;;;144.80;9.23;;;;;;;;;;5020252;28;20030;-60
2023/04/05 00:45:51;;;;;;;87.75;6.70;;;;;;;;;;5019001;28;20624;-60
2023/04/05 00:48:16;;;;;;;94.57;7.22;;;;;;;;;;5019978;28;20041;-61
2023/04/05 00:50:42;;;;;;;106.15;7.45;;;;;;;;;;5019196;28;20509;-60
2023/04/05 00:53:07;;;;;;;104.43;7.55;;;;;;;;;;5019998;28;20048;-59
2023/04/05 00:55:33;;;;;;;87.93;6.32;;;;;;;;;;5018331;28;20041;-61
2023/04/05 00:57:58;;;;;;;89.07;6.82;;;;;;;;;;5019567;28;20021;-60
2023/04/05 01:00:24;;;;;;;99.60;7.18;;;;;;;;;;5019810;28;20045;-60
2023/04/05 01:02:54;;;;;;;102.68;7.63;;;;;;;;;;5020242;28;20100;-60
2023/04/05 01:05:40;;;;;;;97.00;7.07;;;;;;;;;;5017950;28;20108;-59
2023/04/05 01:08:17;;;;;;;112.35;7.82;;;;;;;;;;5019864;28;20079;-60
2023/04/05 01:10:43;;;;;;;96.25;7.05;;;;;;;;;;5019149;28;20026;-59
2023/04/05 01:13:09;;;;;;;108.07;7.88;;;;;;;;;;5019440;28;20017;-59
2023/04/05 01:15:35;;;;;;;106.53;7.63;;;;;;;;;;5017821;28;20671;-58
2023/04/05 01:18:03;;;;;;;66.90;6.50;;;;;;;;;;5019646;28;20022;-61
2023/04/05 01:20:32;;;;;;;103.18;6.97;;;;;;;;;;5019217;28;20037;-60
2023/04/05 01:23:04;;;;;;;100.80;7.65;;;;;;;;;;5019242;28;20032;-59
2023/04/05 01:25:48;;;;;;;77.72;6.68;;;;;;;;;;5018661;28;20029;-60
2023/04/05 01:28:45;;;;;;;97.00;7.13;;;;;;;;;;5019419;28;20021;-61
2023/04/05 01:31:10;;;;;;;102.70;7.15;;;;;;;;;;5006623;28;20060;-61
2023/04/05 01:33:36;;;;;;;134.83;9.77;;;;;;;;;;5018972;28;20187;-61
2023/04/05 01:36:15;;;;;;;112.00;7.77;;;;;;;;;;5017962;28;20617;-61
2023/04/05 01:38:42;;;;;;;91.93;7.13;;;;;;;;;;5019101;28;20992;-60
2023/04/05 01:41:08;;;;;;;107.68;7.60;;;;;;;;;;5018974;28;20061;-60
2023/04/05 01:43:33;;;;;;;118.57;6.68;;;;;;;;;;5018425;28;20475;-61
2023/04/05 01:45:58;;;;;;;114.15;7.80;;;;;;;;;;5018111;28;20092;-60
2023/04/05 01:48:24;;;;;;;110.15;7.78;;;;;;;;;;5018155;28;20703;-61
2023/04/05 01:50:49;;;;;;;92.75;6.50;;;;;;;;;;5019854;28;20040;-60
2023/04/05 01:53:14;;;;;;;101.03;7.95;;;;;;;;;;5018828;28;20056;-60
2023/04/05 01:55:39;;;;;;;85.10;6.55;;;;;;;;;;5017957;28;20236;-61
2023/04/05 01:58:05;;;;;;;113.00;7.90;;;;;;;;;;5018732;28;20061;-59
2023/04/05 02:00:30;;;;;;;113.13;6.75;;;;;;;;;;5017568;28;20037;-60
2023/04/05 02:02:55;;;;;;;79.80;6.75;;;;;;;;;;5019224;28;20729;-60
2023/04/05 02:05:21;;;;;;;113.15;7.90;;;;;;;;;;5017466;28;20464;-60
2023/04/05 02:07:46;;;;;;;122.40;8.57;;;;;;;;;;5018905;28;20475;-60
2023/04/05 02:10:11;;;;;;;113.32;8.35;;;;;;;;;;5018717;28;20644;-59
2023/04/05 02:12:36;;;;;;;118.43;7.38;;;;;;;;;;5018756;28;20025;-61
2023/04/05 02:15:02;;;;;;;88.72;6.72;;;;;;;;;;5018057;28;20017;-61
2023/04/05 02:17:37;;;;;;;80.90;6.15;;;;;;;;;;5018108;28;20022;-60
2023/04/05 02:20:05;;;;;;;103.22;6.75;;;;;;;;;;5019109;28;20036;-60
2023/04/05 02:22:31;;;;;;;92.80;7.47;;;;;;;;;;5018205;28;20026;-61
2023/04/05 02:24:56;;;;;;;127.57;8.35;;;;;;;;;;5017214;28;20036;-60
2023/04/05 02:27:21;;;;;;;95.65;6.65;;;;;;;;;;5017326;28;20022;-59
2023/04/05 02:29:46;;;;;;;96.50;7.07;;;;;;;;;;5018439;28;20044;-58
2023/04/05 02:32:11;;;;;;;107.47;7.22;;;;;;;;;;5017708;28;20053;-60
2023/04/05 02:34:40;;;;;;;101.15;7.22;;;;;;;;;;5017581;28;20040;-61
2023/04/05 02:37:05;;;;;;;121.78;8.23;;;;;;;;;;5017958;28;20037;-60
2023/04/05 02:39:30;;;;;;;102.18;7.28;;;;;;;;;;5018478;28;20028;-59
2023/04/05 02:41:56;;;;;;;81.45;6.60;;;;;;;;;;5018236;28;20133;-60
2023/04/05 02:44:21;;;;;;;123.68;8.05;;;;;;;;;;5016650;28;20396;-61
2023/04/05 02:46:46;;;;;;;77.28;5.68;;;;;;;;;;5017769;28;20811;-59
2023/04/05 02:49:12;;;;;;;96.72;6.85;;;;;;;;;;5018382;28;20526;-59
2023/04/05 02:51:37;;;;;;;98.70;7.88;;;;;;;;;;5017535;28;20144;-60
2023/04/05 02:54:02;;;;;;;139.27;9.48;;;;;;;;;;5017380;28;20097;-60
2023/04/05 02:56:28;;;;;;;123.60;7.30;;;;;;;;;;5017237;28;20034;-61
2023/04/05 02:58:54;;;;;;;94.78;7.25;;;;;;;;;;5017805;28;20514;-60
2023/04/05 03:01:19;;;;;;;84.63;7.25;;;;;;;;;;5017648;28;20634;-60
2023/04/05 03:03:44;;;;;;;124.15;8.35;;;;;;;;;;5017349;28;20025;-60
2023/04/05 03:06:10;;;;;;;84.70;6.63;;;;;;;;;;5016729;28;20068;-60
2023/04/05 03:08:37;;;;;;;101.53;7.50;;;;;;;;;;5017513;28;20037;-60
2023/04/05 03:11:03;;;;;;;98.80;7.07;;;;;;;;;;5017529;28;20113;-60
2023/04/05 03:13:29;;;;;;;115.15;8.20;;;;;;;;;;5017641;28;20018;-60
2023/04/05 03:15:54;;;;;;;116.65;8.07;;;;;;;;;;5016475;28;20533;-59
2023/04/05 03:18:19;;;;;;;106.25;7.57;;;;;;;;;;5017798;28;20914;-60
2023/04/05 03:20:48;;;;;;;88.15;7.60;;;;;;;;;;5017464;28;20074;-60
2023/04/05 03:23:13;;;;;;;111.22;7.97;;;;;;;;;;5017484;28;20080;-60
2023/04/05 03:25:40;;;;;;;90.03;6.95;;;;;;;;;;5016633;28;20042;-60
2023/04/05 03:28:07;;;;;;;112.85;7.45;;;;;;;;;;5017084;28;20031;-60
2023/04/05 03:30:32;;;;;;;87.15;7.25;;;;;;;;;;5017309;28;20128;-60
2023/04/05 03:33:00;;;;;;;80.38;6.68;;;;;;;;;;5018333;28;20112;-61
2023/04/05 03:35:25;;;;;;;112.60;8.38;;;;;;;;;;5016215;28;20037;-62
2023/04/05 03:37:50;;;;;;;106.18;8.18;;;;;;;;;;5017960;28;20017;-60
2023/04/05 03:40:16;;;;;;;110.10;8.15;;;;;;;;;;5020739;28;20083;-62
2023/04/05 03:42:43;;;;;;;113.75;8.18;;;;;;;;;;5021963;28;20523;-60
2023/04/05 03:45:08;;;;;;;93.03;7.50;;;;;;;;;;5020170;28;20861;-61
2023/04/05 03:47:33;;;;;;;130.10;8.10;;;;;;;;;;5021224;28;20592;-60
2023/04/05 03:50:01;;;;;;;92.43;7.20;;;;;;;;;;5021281;28;20032;-61
2023/04/05 03:52:26;;;;;;;96.75;7.32;;;;;;;;;;5020943;28;20049;-60
2023/04/05 03:54:51;;;;;;;125.15;8.30;;;;;;;;;;5019594;28;20028;-60
2023/04/05 03:57:17;;;;;;;98.50;7.43;;;;;;;;;;5020665;28;20041;-61
2023/04/05 03:59:42;;;;;;;117.95;7.68;;;;;;;;;;5020767;28;20044;-61
2023/04/05 04:02:07;;;;;;;103.05;7.03;;;;;;;;;;5020434;28;20407;-61
2023/04/05 04:04:32;;;;;;;73.75;6.25;;;;;;;;;;5020175;28;20745;-61
2023/04/05 04:06:57;;;;;;;99.90;7.22;;;;;;;;;;5020581;28;20356;-61
2023/04/05 04:09:23;;;;;;;76.40;6.55;;;;;;;;;;5021387;28;20209;-60
2023/04/05 04:11:48;;;;;;;97.40;7.00;;;;;;;;;;5020746;28;20530;-62
2023/04/05 04:14:14;;;;;;;134.70;8.70;;;;;;;;;;5019606;28;20025;-61
2023/04/05 04:16:39;;;;;;;103.03;8.20;;;;;;;;;;5020021;28;20115;-61
2023/04/05 04:19:04;;;;;;;81.72;6.88;;;;;;;;;;5020814;28;20018;-60
2023/04/05 04:21:31;;;;;;;107.15;7.65;;;;;;;;;;5019137;28;20087;-60
2023/04/05 04:23:59;;;;;;;107.85;7.70;;;;;;;;;;5020174;28;20111;-61
2023/04/05 04:26:27;;;;;;;128.32;8.13;;;;;;;;;;5019853;28;20115;-61
2023/04/05 04:28:54;;;;;;;100.40;7.57;;;;;;;;;;5021070;28;20116;-61
2023/04/05 04:31:20;;;;;;;98.03;7.05;;;;;;;;;;5019805;28;20179;-61
2023/04/05 04:33:46;;;;;;;114.60;7.70;;;;;;;;;;5020141;28;20084;-62
2023/04/05 04:36:12;;;;;;;89.63;7.10;;;;;;;;;;5019644;28;20029;-59
2023/04/05 04:38:41;;;;;;;110.53;7.22;;;;;;;;;;5020281;28;20029;-61
2023/04/05 04:41:07;;;;;;;82.82;6.63;;;;;;;;;;5020072;28;20531;-61
2023/04/05 04:43:32;;;;;;;106.13;7.65;;;;;;;;;;5020180;28;20029;-61
2023/04/05 04:45:57;;;;;;;111.10;7.10;;;;;;;;;;5019402;28;20593;-60
2023/04/05 04:48:23;;;;;;;85.90;6.70;;;;;;;;;;5020450;28;20048;-62
2023/04/05 04:50:51;;;;;;;102.20;7.38;;;;;;;;;;5019356;28;20033;-61
2023/04/05 04:53:17;;;;;;;105.53;8.10;;;;;;;;;;5020163;28;20510;-59
2023/04/05 04:55:43;;;;;;;90.43;7.10;;;;;;;;;;5018767;28;20045;-60
2023/04/05 04:58:10;;;;;;;110.72;8.00;;;;;;;;;;5019814;28;20018;-60
2023/04/05 05:00:42;;;;;;;106.15;8.10;;;;;;;;;;5019462;28;20348;-60
2023/04/05 05:03:10;;;;;;;100.53;7.35;;;;;;;;;;5020136;28;20021;-60
2023/04/05 05:05:35;;;;;;;80.82;6.57;;;;;;;;;;5018456;28;20308;-60
2023/04/05 05:08:00;;;;;;;84.40;6.38;;;;;;;;;;5020171;28;20377;-60
2023/04/05 05:10:26;;;;;;;113.70;7.95;;;;;;;;;;5019100;28;20049;-60
2023/04/05 05:12:51;;;;;;;87.50;6.55;;;;;;;;;;5020023;28;20047;-58
2023/04/05 05:15:17;;;;;;;105.75;8.15;;;;;;;;;;5017819;28;20044;-60
2023/04/05 05:17:43;;;;;;;99.28;7.13;;;;;;;;;;5020139;28;20029;-61
2023/04/05 05:20:09;;;;;;;102.80;8.05;;;;;;;;;;5019182;28;20403;-60
2023/04/05 05:22:35;;;;;;;100.75;9.02;;;;;;;;;;5019604;28;20560;-59
2023/04/05 05:25:01;;;;;;;67.72;6.30;;;;;;;;;;5019042;28;20482;-60
2023/04/05 05:27:27;;;;;;;85.43;7.30;;;;;;;;;;5019264;28;20265;-60
2023/04/05 05:29:52;;;;;;;108.25;9.90;;;;;;;;;;5019239;28;20494;-60
2023/04/05 05:32:17;;;;;;;84.00;6.85;;;;;;;;;;5019317;28;20040;-61
2023/04/05 05:34:43;;;;;;;93.43;7.72;;;;;;;;;;5018747;28;20033;-60
2023/04/05 05:37:09;;;;;;;82.35;6.75;;;;;;;;;;5019048;28;20817;-59
2023/04/05 05:39:37;;;;;;;79.72;6.53;;;;;;;;;;5019217;28;20034;-61
2023/04/05 05:42:02;;;;;;;113.47;8.32;;;;;;;;;;5012649;28;20040;-61
2023/04/05 05:44:28;;;;;;;82.07;7.10;;;;;;;;;;5016757;28;20013;-60
2023/04/05 05:46:53;;;;;;;79.30;6.95;;;;;;;;;;5017195;28;20049;-60
2023/04/05 05:49:18;;;;;;;98.50;7.80;;;;;;;;;;5018692;28;20037;-60
2023/04/05 05:51:44;;;;;;;75.78;6.55;;;;;;;;;;5017474;28;20480;-60
2023/04/05 05:54:09;;;;;;;128.70;9.32;;;;;;;;;;5017969;28;20459;-61
2023/04/05 05:56:35;;;;;;;79.22;6.05;;;;;;;;;;5018174;28;20420;-60
2023/04/05 05:59:00;;;;;;;77.87;7.20;;;;;;;;;;5019296;28;20021;-59
2023/04/05 06:01:26;;;;;;;118.25;8.90;;;;;;;;;;5017662;28;20261;-60
2023/04/05 06:03:52;;;;;;;96.00;7.53;;;;;;;;;;5020699;28;20048;-60
2023/04/05 06:06:17;;;;;;;99.55;7.82;;;;;;;;;;5017770;28;20547;-59
2023/04/05 06:08:42;;;;;;;105.30;8.32;;;;;;;;;;5018653;28;20108;-61
2023/04/05 06:11:15;;;;;;;69.80;6.43;;;;;;;;;;5018644;28;20128;-61
2023/04/05 06:13:40;;;;;;;115.43;8.82;;;;;;;;;;5018422;28;20080;-60
2023/04/05 06:16:06;;;;;;;80.73;5.50;;;;;;;;;;5017761;28;20037;-60
2023/04/05 06:18:31;;;;;;;93.57;7.43;;;;;;;;;;5018685;28;21136;-61
2023/04/05 06:20:56;;;;;;;112.45;8.02;;;;;;;;;;5017051;28;20037;-61
2023/04/05 06:23:21;;;;;;;91.45;7.30;;;;;;;;;;5018739;28;20022;-58
2023/04/05 06:25:47;;;;;;;88.43;7.10;;;;;;;;;;5017798;28;20041;-59
2023/04/05 06:28:12;;;;;;;89.60;5.78;;;;;;;;;;5017682;28;20043;-60
2023/04/05 06:30:38;;;;;;;85.55;5.97;;;;;;;;;;5018419;28;20223;-60
2023/04/05 06:33:03;;;;;;;85.13;6.95;;;;;;;;;;5018952;28;20118;-58
2023/04/05 06:35:28;;;;;;;84.18;6.57;;;;;;;;;;5017058;28;20049;-59
2023/04/05 06:37:53;;;;;;;82.10;6.10;;;;;;;;;;5018402;28;20029;-61
2023/04/05 06:40:19;;;;;;;104.00;7.50;;;;;;;;;;5017755;28;20267;-61
2023/04/05 06:42:44;;;;;;;79.95;5.70;;;;;;;;;;5018400;28;20287;-60
2023/04/05 06:45:10;;;;;;;77.73;6.33;;;;;;;;;;5017222;28;20074;-61
2023/04/05 06:47:37;;;;;;;83.85;6.05;;;;;;;;;;5018022;28;20390;-61
2023/04/05 06:50:02;;;;;;;91.95;6.85;;;;;;;;;;5018768;28;20136;-62
2023/04/05 06:52:28;;;;;;;94.80;6.88;;;;;;;;;;5017636;28;20049;-60
2023/04/05 06:54:54;;;;;;;78.72;6.70;;;;;;;;;;5017328;28;20148;-61
2023/04/05 06:57:19;;;;;;;75.35;5.85;;;;;;;;;;5017923;28;20037;-60
2023/04/05 06:59:44;;;;;;;82.97;6.75;;;;;;;;;;5018636;28;20482;-61
2023/04/05 07:02:10;;;;;;;80.97;6.72;;;;;;;;;;5017805;28;20495;-62
2023/04/05 07:04:36;;;;;;;73.20;6.00;;;;;;;;;;5017091;28;20116;-60
2023/04/05 07:07:02;;;;;;;91.47;7.32;;;;;;;;;;5017154;28;20033;-61
2023/04/05 07:09:29;;;;;;;83.63;6.18;;;;;;;;;;5018109;28;20042;-62
2023/04/05 07:11:56;;;;;;;78.40;6.43;;;;;;;;;;5017592;28;20140;-62
2023/04/05 07:14:21;;;;;;;98.82;6.80;;;;;;;;;;5016750;28;20036;-61
2023/04/05 07:16:46;;;;;;;83.93;6.28;;;;;;;;;;5017856;28;20293;-61
2023/04/05 07:19:11;;;;;;;76.13;6.18;;;;;;;;;;5018353;28;20025;-61
2023/04/05 07:21:37;;;;;;;69.03;4.80;;;;;;;;;;5018210;28;20250;-62
2023/04/05 07:24:02;;;;;;;118.60;8.18;;;;;;;;;;5017219;28;20854;-60
2023/04/05 07:26:27;;;;;;;101.75;7.45;;;;;;;;;;5016934;28;20040;-62
2023/04/05 07:28:53;;;;;;;81.60;6.63;;;;;;;;;;5018770;28;20033;-61
2023/04/05 07:31:18;;;;;;;86.85;7.05;;;;;;;;;;5018394;28;20072;-62
2023/04/05 07:33:43;;;;;;;87.40;6.32;;;;;;;;;;5018523;28;20491;-62
2023/04/05 07:36:08;;;;;;;51.80;4.47;;;;;;;;;;5017558;28;20089;-62
2023/04/05 07:38:34;;;;;;;73.35;5.65;;;;;;;;;;5018550;28;20348;-62
2023/04/05 07:40:59;;;;;;;80.03;5.67;;;;;;;;;;5017476;28;20034;-61
2023/04/05 07:43:24;;;;;;;95.37;7.20;;;;;;;;;;5016767;28;20268;-61
2023/04/05 07:45:52;;;;;;;89.72;6.97;;;;;;;;;;5015654;28;20693;-62
2023/04/05 07:48:17;;;;;;;72.00;6.60;;;;;;;;;;5017566;28;20045;-63
2023/04/05 07:50:46;;;;;;;72.93;7.07;;;;;;;;;;5017100;28;20041;-63
2023/04/05 07:53:11;;;;;;;81.75;6.22;;;;;;;;;;5016858;28;20256;-63
2023/04/05 07:55:37;;;;;;;70.25;6.70;;;;;;;;;;5015789;28;20033;-63
2023/04/05 07:58:02;;;;;;;62.92;6.03;;;;;;;;;;5017732;28;20014;-63
2023/04/05 08:00:28;;;;;;;76.13;6.77;;;;;;;;;;5016600;28;20063;-64
2023/04/05 08:02:53;;;;;;;69.00;6.80;;;;;;;;;;5017544;28;20776;-60
2023/04/05 08:05:18;;;;;;;72.40;6.07;;;;;;;;;;5015988;28;20371;-62
2023/04/05 08:07:43;;;;;;;72.20;6.07;;;;;;;;;;5017161;28;20852;-61
2023/04/05 08:10:09;;;;;;;52.27;4.93;;;;;;;;;;5017157;28;20765;-63
2023/04/05 08:12:34;;;;;;;67.38;6.88;;;;;;;;;;5016984;28;20378;-64
2023/04/05 08:14:59;;;;;;;61.08;6.05;;;;;;;;;;5016728;28;20464;-64
2023/04/05 08:17:27;;;;;;;67.43;6.73;;;;;;;;;;5016688;28;20271;-63
2023/04/05 08:19:52;;;;;;;73.28;6.95;;;;;;;;;;5017665;28;20267;-63
2023/04/05 08:22:18;;;;;;;69.78;6.40;;;;;;;;;;5016924;28;20038;-64
2023/04/05 08:24:43;;;;;;;48.13;5.72;;;;;;;;;;5017254;28;20372;-64
2023/04/05 08:27:08;;;;;;;70.20;6.70;;;;;;;;;;5020575;28;20053;-61
2023/04/05 08:29:34;;;;;;;55.87;5.77;;;;;;;;;;5021145;28;20033;-63
2023/04/05 08:31:59;;;;;;;55.67;5.88;;;;;;;;;;5020315;28;20740;-63
2023/04/05 09:16:37;;;;;;;147.85;8.10;;;;;;;;;;5080182;27;20240;-53
2023/04/05 09:19:03;;;;;;;315.85;14.57;;;;;;;;;;5032671;28;20041;-56
2023/04/05 09:21:29;;;;;;;124.38;6.93;;;;;;;;;;5032714;28;20042;-59
2023/04/05 09:23:55;;;;;;;140.35;7.35;;;;;;;;;;5033834;28;20067;-56
2023/04/05 09:26:21;;;;;;;145.32;8.13;;;;;;;;;;5028292;28;20022;-55
2023/04/05 09:28:46;;;;;;;158.27;8.02;;;;;;;;;;5032667;28;20028;-56
2023/04/05 09:31:35;;;;;;;116.05;7.10;;;;;;;;;;5032660;28;20282;-57
2023/04/05 09:34:01;;;;;;;164.20;8.50;;;;;;;;;;5027154;28;20037;-55
2023/04/05 09:36:27;;;;;;;184.13;9.27;;;;;;;;;;5030850;28;20042;-56
2023/04/05 09:38:52;;;;;;;127.38;7.32;;;;;;;;;;5032321;28;20722;-55
2023/04/05 09:41:17;;;;;;;147.80;7.95;;;;;;;;;;5031117;28;20356;-54
2023/04/05 09:43:43;;;;;;;119.28;6.78;;;;;;;;;;5031641;28;20697;-57
2023/04/05 09:46:29;;;;;;;218.10;9.70;;;;;;;;;;5032548;28;20045;-55
2023/04/05 09:48:55;;;;;;;156.88;8.07;;;;;;;;;;5025035;28;20029;-54
2023/04/05 09:51:21;;;;;;;191.88;8.70;;;;;;;;;;5031218;28;20044;-54
2023/04/05 09:53:57;;;;;;;112.65;6.93;;;;;;;;;;5030135;28;20045;-53
2023/04/05 09:56:23;;;;;;;152.38;7.43;;;;;;;;;;5029460;28;20029;-56
2023/04/05 09:58:50;;;;;;;132.57;8.10;;;;;;;;;;5032145;28;20026;-55
2023/04/05 10:01:15;;;;;;;121.38;7.13;;;;;;;;;;5028793;28;20075;-58
2023/04/05 10:03:47;;;;;;;138.77;7.55;;;;;;;;;;5032583;28;20108;-57
2023/04/05 10:06:14;;;;;;;198.75;10.40;;;;;;;;;;5029341;28;20045;-54
2023/04/05 10:08:39;;;;;;;142.82;7.60;;;;;;;;;;5032119;28;20024;-57
2023/04/05 10:11:05;;;;;;;122.23;7.50;;;;;;;;;;5032445;28;20403;-57
2023/04/05 10:13:30;;;;;;;114.03;7.72;;;;;;;;;;5032555;28;20266;-57
2023/04/05 10:15:57;;;;;;;128.65;6.90;;;;;;;;;;5029094;28;20639;-59
2023/04/05 10:18:27;;;;;;;128.45;7.22;;;;;;;;;;5017634;28;20485;-55
2023/04/05 10:20:53;;;;;;;85.93;5.78;;;;;;;;;;5051781;28;20823;-56
2023/04/05 10:23:23;;;;;;;102.60;6.85;;;;;;;;;;5019273;28;20102;-57
2023/04/05 10:25:52;;;;;;;113.30;7.32;;;;;;;;;;5022890;28;20112;-58
2023/04/05 10:28:20;;;;;;;155.43;8.27;;;;;;;;;;5019482;28;20033;-57
2023/04/05 10:30:46;;;;;;;117.88;7.25;;;;;;;;;;5020252;28;20033;-57
2023/04/05 10:33:27;;;;;;;119.93;7.25;;;;;;;;;;5018860;28;20057;-56
2023/04/05 10:36:11;;;;;;;121.70;7.60;;;;;;;;;;5016210;28;20079;-56
2023/04/05 10:38:45;;;;;;;120.78;7.32;;;;;;;;;;5016326;28;20037;-57
2023/04/05 10:41:13;;;;;;;115.75;6.75;;;;;;;;;;5020555;28;20037;-58
2023/04/05 10:43:40;;;;;;;117.78;6.70;;;;;;;;;;5017509;28;20164;-57
2023/04/05 10:46:05;;;;;;;142.90;8.63;;;;;;;;;;5015565;28;20703;-56
2023/04/05 10:48:45;;;;;;;153.32;8.40;;;;;;;;;;5018563;28;20044;-56
2023/04/05 10:51:12;;;;;;;141.82;7.45;;;;;;;;;;5017370;28;20038;-56
2023/04/05 10:53:37;;;;;;;117.57;7.47;;;;;;;;;;5016821;28;20109;-58
2023/04/05 10:56:03;;;;;;;127.82;7.25;;;;;;;;;;5015002;28;20414;-56
2023/04/05 10:58:29;;;;;;;133.70;6.53;;;;;;;;;;5019251;28;20082;-57
2023/04/05 11:00:55;;;;;;;189.70;9.07;;;;;;;;;;5019095;28;20040;-58
2023/04/05 11:03:39;;;;;;;168.48;8.23;;;;;;;;;;5017974;28;20062;-58
2023/04/05 11:06:16;;;;;;;164.25;8.45;;;;;;;;;;5018918;28;20083;-56
2023/04/05 11:08:42;;;;;;;114.30;5.97;;;;;;;;;;5017549;28;20026;-56
2023/04/05 11:11:08;;;;;;;165.60;7.90;;;;;;;;;;5016880;28;20044;-56
2023/04/05 11:13:50;;;;;;;143.13;8.15;;;;;;;;;;5017157;28;20106;-59
2023/04/05 11:16:15;;;;;;;222.80;10.60;;;;;;;;;;5014175;28;20784;-58
2023/04/05 11:18:45;;;;;;;136.48;7.15;;;;;;;;;;5018623;28;20531;-59
2023/04/05 11:21:10;;;;;;;111.55;6.97;;;;;;;;;;5048215;28;20905;-56
2023/04/05 11:23:55;;;;;;;126.82;6.57;;;;;;;;;;5019543;28;20018;-60
2023/04/05 11:26:20;;;;;;;224.50;9.68;;;;;;;;;;5018696;28;20133;-60
2023/04/05 11:28:46;;;;;;;142.40;7.00;;;;;;;;;;5016031;28;20102;-58
2023/04/05 11:31:15;;;;;;;143.80;7.30;;;;;;;;;;5017026;28;20132;-58
2023/04/05 11:33:43;;;;;;;187.68;8.98;;;;;;;;;;5017397;28;20260;-57
2023/04/05 11:36:09;;;;;;;167.57;8.60;;;;;;;;;;5016572;28;20603;-57
2023/04/05 11:38:34;;;;;;;139.77;6.95;;;;;;;;;;5016556;28;20029;-57
2023/04/05 11:41:16;;;;;;;138.30;6.90;;;;;;;;;;5015675;28;20494;-58
2023/04/05 11:43:41;;;;;;;159.18;8.63;;;;;;;;;;5015412;28;20033;-56
2023/04/05 11:46:07;;;;;;;157.57;8.20;;;;;;;;;;5050733;28;20732;-58
2023/04/05 11:48:33;;;;;;;97.18;6.07;;;;;;;;;;5017899;28;20037;-56
2023/04/05 11:50:59;;;;;;;175.52;8.82;;;;;;;;;;5019941;28;20063;-55
2023/04/05 11:53:24;;;;;;;143.95;7.80;;;;;;;;;;5017929;28;20025;-58
2023/04/05 11:55:50;;;;;;;128.35;7.25;;;;;;;;;;5014946;28;20033;-56
2023/04/05 11:58:15;;;;;;;188.75;9.15;;;;;;;;;;5012565;28;20036;-56
2023/04/05 12:00:41;;;;;;;124.28;7.57;;;;;;;;;;5016309;28;20041;-58
2023/04/05 12:03:09;;;;;;;121.60;6.93;;;;;;;;;;5018074;28;20026;-56
2023/04/05 12:06:04;;;;;;;130.50;7.38;;;;;;;;;;5014559;28;20048;-55
2023/04/05 12:08:39;;;;;;;152.02;7.90;;;;;;;;;;5008522;28;20053;-56
2023/04/05 12:11:06;;;;;;;139.43;7.32;;;;;;;;;;5016468;28;20033;-55
2023/04/05 12:13:32;;;;;;;178.50;7.50;;;;;;;;;;5017325;28;20031;-57
2023/04/05 12:15:58;;;;;;;151.88;7.28;;;;;;;;;;5017354;28;20038;-57
2023/04/05 12:18:24;;;;;;;162.55;7.50;;;;;;;;;;5016283;28;20871;-57
2023/04/05 12:20:49;;;;;;;130.52;6.30;;;;;;;;;;5019628;28;20057;-57
2023/04/05 12:23:16;;;;;;;115.88;7.25;;;;;;;;;;5016586;28;20025;-56
2023/04/05 12:25:44;;;;;;;150.52;7.72;;;;;;;;;;5015076;28;20120;-57
2023/04/05 12:28:10;;;;;;;141.63;7.85;;;;;;;;;;5016268;28;20080;-56
2023/04/05 12:30:46;;;;;;;152.10;8.10;;;;;;;;;;5015438;28;20038;-57
2023/04/05 12:33:12;;;;;;;136.57;7.47;;;;;;;;;;5018740;28;20025;-56
2023/04/05 12:35:37;;;;;;;129.17;5.77;;;;;;;;;;5015456;28;20029;-54
2023/04/05 12:38:06;;;;;;;209.05;9.45;;;;;;;;;;5015102;28;20268;-56
2023/04/05 12:40:36;;;;;;;136.25;7.53;;;;;;;;;;5015529;28;20037;-57
2023/04/05 12:43:05;;;;;;;168.85;7.07;;;;;;;;;;5015241;28;20041;-54
2023/04/05 12:45:38;;;;;;;170.63;8.00;;;;;;;;;;5017624;28;20037;-55
2023/04/05 12:48:06;;;;;;;127.82;5.65;;;;;;;;;;5013193;28;20053;-56
2023/04/05 12:50:31;;;;;;;154.23;7.93;;;;;;;;;;5014766;28;20037;-56
2023/04/05 12:52:57;;;;;;;152.75;7.30;;;;;;;;;;5016204;28;20753;-58
2023/04/05 12:55:23;;;;;;;202.70;9.15;;;;;;;;;;5015292;28;20322;-54
2023/04/05 12:57:52;;;;;;;137.13;7.03;;;;;;;;;;5014496;28;20760;-55
2023/04/05 13:00:20;;;;;;;163.05;7.80;;;;;;;;;;5016146;28;20022;-55
2023/04/05 13:02:47;;;;;;;120.10;5.97;;;;;;;;;;5016518;28;20655;-57
2023/04/05 13:05:12;;;;;;;178.85;7.93;;;;;;;;;;5016038;28;20030;-58
2023/04/05 13:07:38;;;;;;;163.93;8.05;;;;;;;;;;5014960;28;20024;-55
2023/04/05 13:10:03;;;;;;;130.03;6.40;;;;;;;;;;5017582;28;20464;-55
2023/04/05 13:12:28;;;;;;;157.57;8.00;;;;;;;;;;5016530;28;20830;-56
2023/04/05 13:14:53;;;;;;;187.45;7.88;;;;;;;;;;5016046;28;20498;-56
2023/04/05 13:17:19;;;;;;;136.50;6.20;;;;;;;;;;5015338;28;20048;-56
2023/04/05 13:19:44;;;;;;;149.10;6.97;;;;;;;;;;5013981;28;20263;-54
2023/04/05 13:22:09;;;;;;;156.27;7.32;;;;;;;;;;5018186;28;20083;-56
2023/04/05 13:24:35;;;;;;;146.13;6.50;;;;;;;;;;5016875;28;20040;-57
2023/04/05 13:27:00;;;;;;;180.17;7.50;;;;;;;;;;5014519;28;20272;-55
2023/04/05 13:29:25;;;;;;;166.32;7.88;;;;;;;;;;5013228;28;20267;-56
2023/04/05 13:31:50;;;;;;;104.90;6.32;;;;;;;;;;5015587;28;20522;-56
2023/04/05 13:34:16;;;;;;;179.73;8.75;;;;;;;;;;5016696;28;20128;-59
2023/04/05 13:36:41;;;;;;;129.80;6.47;;;;;;;;;;5015114;28;20065;-55
2023/04/05 13:39:06;;;;;;;188.13;8.32;;;;;;;;;;5018422;28;20257;-60
2023/04/05 13:41:31;;;;;;;146.35;7.93;;;;;;;;;;5012076;28;20539;-57
2023/04/05 13:43:56;;;;;;;148.97;6.83;;;;;;;;;;5014790;28;20021;-57
2023/04/05 13:46:22;;;;;;;163.30;7.82;;;;;;;;;;5014836;28;20616;-58
2023/04/05 13:48:47;;;;;;;115.35;6.80;;;;;;;;;;5015923;28;20053;-55
2023/04/05 13:51:12;;;;;;;135.97;7.77;;;;;;;;;;5016195;28;20033;-58
2023/04/05 13:53:37;;;;;;;182.43;9.50;;;;;;;;;;5020026;28;20893;-55
2023/04/05 13:56:03;;;;;;;188.50;9.07;;;;;;;;;;5017469;28;20327;-57
2023/04/05 13:58:28;;;;;;;169.10;8.23;;;;;;;;;;5019846;28;20030;-55
2023/04/05 14:00:53;;;;;;;183.47;8.47;;;;;;;;;;5017043;28;20041;-56
2023/04/05 14:03:18;;;;;;;128.93;6.72;;;;;;;;;;5018938;28;20318;-57
2023/04/05 14:05:44;;;;;;;131.23;7.13;;;;;;;;;;5017574;28;20377;-56
2023/04/05 14:08:09;;;;;;;175.35;7.25;;;;;;;;;;5017928;28;20025;-55
2023/04/05 14:10:34;;;;;;;163.35;7.95;;;;;;;;;;5046592;28;20087;-56
2023/04/05 14:13:00;;;;;;;173.00;7.57;;;;;;;;;;5018859;28;20891;-56
2023/04/05 14:15:26;;;;;;;211.32;8.73;;;;;;;;;;5019028;28;20022;-55
2023/04/05 14:17:51;;;;;;;187.30;8.52;;;;;;;;;;5016766;28;20535;-56
2023/04/05 14:20:17;;;;;;;193.98;8.13;;;;;;;;;;5019309;28;20025;-56
2023/04/05 14:22:42;;;;;;;114.63;5.25;;;;;;;;;;5008489;28;20025;-55
2023/04/05 14:25:08;;;;;;;199.40;8.63;;;;;;;;;;5017049;28;20020;-56
2023/04/05 14:27:34;;;;;;;183.25;8.43;;;;;;;;;;5018598;28;20635;-57
2023/04/05 14:30:00;;;;;;;165.85;8.13;;;;;;;;;;5021398;28;20812;-58
2023/04/05 14:32:25;;;;;;;144.50;7.10;;;;;;;;;;5021606;28;20505;-57
2023/04/05 14:34:50;;;;;;;153.35;7.30;;;;;;;;;;5018999;28;20052;-58
2023/04/05 14:37:17;;;;;;;199.75;7.50;;;;;;;;;;5015294;28;20038;-56
2023/04/05 14:39:42;;;;;;;191.07;7.47;;;;;;;;;;5017667;28;20029;-58
2023/04/05 14:42:08;;;;;;;176.90;7.25;;;;;;;;;;5019790;28;20034;-58
2023/04/05 14:44:33;;;;;;;176.73;7.93;;;;;;;;;;5020671;28;20059;-59
2023/04/05 14:46:58;;;;;;;208.75;7.88;;;;;;;;;;5016469;28;20056;-55
2023/04/05 14:49:24;;;;;;;167.00;7.55;;;;;;;;;;5016721;28;20923;-57
2023/04/05 14:51:49;;;;;;;170.80;7.18;;;;;;;;;;5018398;28;20034;-56
2023/04/05 14:54:14;;;;;;;196.88;8.23;;;;;;;;;;5018029;28;20060;-56
2023/04/05 14:56:40;;;;;;;164.00;6.72;;;;;;;;;;5017852;28;20025;-55
2023/04/05 14:59:05;;;;;;;218.77;8.90;;;;;;;;;;5018601;28;20037;-55
2023/04/05 15:01:30;;;;;;;245.30;9.00;;;;;;;;;;5013690;28;20076;-56